KGOP

Gatesville Municipal Airport

Gatesville, Texas, USA
METAR KGOP 182315Z AUTO 16005KT 10SM CLR 38/16 A2989 RMK AO2
Observed Flight Rules
Aug-18 @ 23:15 UTC (30 minutes ago) Visual Flight Rules
Wind Visibility Clouds
160° at 5 knots 10 miles
  • Clear skies
Temperatures Readings
Current 38°C / 100°F
Dewpoint 16°C / 61°F
Humidity 27%
Altimeter 29.89" Hg
Pressure 1012 hPa
Elevation 276
METAR KGOP 182315Z AUTO 16005KT 10SM CLR 38/16 A2989 RMK AO2
Observed Flight Rules
Aug-18 @ 23:15 UTC
(30 minutes ago)
VFR
Wind Visibility
160° at 5 knots 10 miles
Clouds
  • Clear skies
Temperature Dewpoint
38°C / 100°F 16°C / 61°F
Humidity Altimeter Pressure
27% 29.89" Hg 1012 hPa